sensor_id;sensor_type;location;lat;lon;timestamp;pressure;altitude;pressure_sealevel;temperature
35582;BMP180;21687;48.900;9.188;2023-07-22T00:01:39;98406.00;;;12.60
35582;BMP180;21687;48.900;9.188;2023-07-22T00:04:05;98410.00;;;12.60
35582;BMP180;21687;48.900;9.188;2023-07-22T00:06:32;98406.00;;;12.60
35582;BMP180;21687;48.900;9.188;2023-07-22T00:08:58;98403.00;;;12.60
35582;BMP180;21687;48.900;9.188;2023-07-22T00:11:25;98402.00;;;12.60
35582;BMP180;21687;48.900;9.188;2023-07-22T00:13:52;98396.00;;;12.60
35582;BMP180;21687;48.900;9.188;2023-07-22T00:16:19;98406.00;;;12.60
35582;BMP180;21687;48.900;9.188;2023-07-22T00:18:46;98408.00;;;12.50
35582;BMP180;21687;48.900;9.188;2023-07-22T00:21:15;98407.00;;;12.60
35582;BMP180;21687;48.900;9.188;2023-07-22T00:23:41;98411.00;;;12.60
35582;BMP180;21687;48.900;9.188;2023-07-22T00:26:08;98408.00;;;12.70
35582;BMP180;21687;48.900;9.188;2023-07-22T00:28:35;98411.00;;;12.70
35582;BMP180;21687;48.900;9.188;2023-07-22T00:31:03;98410.00;;;12.70
35582;BMP180;21687;48.900;9.188;2023-07-22T00:33:30;98409.00;;;12.90
35582;BMP180;21687;48.900;9.188;2023-07-22T00:35:56;98411.00;;;13.00
35582;BMP180;21687;48.900;9.188;2023-07-22T00:38:22;98410.00;;;13.00
35582;BMP180;21687;48.900;9.188;2023-07-22T00:40:49;98404.00;;;13.00
35582;BMP180;21687;48.900;9.188;2023-07-22T00:43:15;98407.00;;;13.10
35582;BMP180;21687;48.900;9.188;2023-07-22T00:45:42;98404.00;;;13.10
35582;BMP180;21687;48.900;9.188;2023-07-22T00:48:09;98406.00;;;13.20
35582;BMP180;21687;48.900;9.188;2023-07-22T00:50:36;98401.00;;;13.20
35582;BMP180;21687;48.900;9.188;2023-07-22T00:53:02;98403.00;;;13.20
35582;BMP180;21687;48.900;9.188;2023-07-22T00:55:28;98400.00;;;13.10
35582;BMP180;21687;48.900;9.188;2023-07-22T00:57:55;98385.00;;;13.10
35582;BMP180;21687;48.900;9.188;2023-07-22T01:00:22;98386.00;;;13.20
35582;BMP180;21687;48.900;9.188;2023-07-22T01:02:48;98391.00;;;13.10
35582;BMP180;21687;48.900;9.188;2023-07-22T01:05:15;98388.00;;;13.10
35582;BMP180;21687;48.900;9.188;2023-07-22T01:07:42;98386.00;;;13.10
35582;BMP180;21687;48.900;9.188;2023-07-22T01:10:09;98385.00;;;13.00
35582;BMP180;21687;48.900;9.188;2023-07-22T01:12:35;98387.00;;;13.00
35582;BMP180;21687;48.900;9.188;2023-07-22T01:15:02;98387.00;;;13.00
35582;BMP180;21687;48.900;9.188;2023-07-22T01:17:34;98387.00;;;12.90
35582;BMP180;21687;48.900;9.188;2023-07-22T01:20:02;98385.00;;;12.90
35582;BMP180;21687;48.900;9.188;2023-07-22T01:22:29;98382.00;;;12.90
35582;BMP180;21687;48.900;9.188;2023-07-22T01:24:56;98376.00;;;12.80
35582;BMP180;21687;48.900;9.188;2023-07-22T01:27:23;98383.00;;;12.80
35582;BMP180;21687;48.900;9.188;2023-07-22T01:29:53;98372.00;;;12.70
35582;BMP180;21687;48.900;9.188;2023-07-22T01:32:19;98377.00;;;12.70
35582;BMP180;21687;48.900;9.188;2023-07-22T01:34:47;98376.00;;;12.80
35582;BMP180;21687;48.900;9.188;2023-07-22T01:37:13;98381.00;;;12.70
35582;BMP180;21687;48.900;9.188;2023-07-22T01:39:39;98377.00;;;12.70
35582;BMP180;21687;48.900;9.188;2023-07-22T01:42:05;98369.00;;;12.70
35582;BMP180;21687;48.900;9.188;2023-07-22T01:44:32;98377.00;;;12.60
35582;BMP180;21687;48.900;9.188;2023-07-22T01:47:01;98375.00;;;12.70
35582;BMP180;21687;48.900;9.188;2023-07-22T01:49:28;98376.00;;;12.60
35582;BMP180;21687;48.900;9.188;2023-07-22T01:51:55;98380.00;;;12.50
35582;BMP180;21687;48.900;9.188;2023-07-22T01:54:21;98369.00;;;12.50
35582;BMP180;21687;48.900;9.188;2023-07-22T01:56:48;98376.00;;;12.40
35582;BMP180;21687;48.900;9.188;2023-07-22T01:59:14;98368.00;;;12.40
35582;BMP180;21687;48.900;9.188;2023-07-22T02:01:40;98369.00;;;12.30
35582;BMP180;21687;48.900;9.188;2023-07-22T02:04:06;98365.00;;;12.30
35582;BMP180;21687;48.900;9.188;2023-07-22T02:06:33;98367.00;;;12.40
35582;BMP180;21687;48.900;9.188;2023-07-22T02:09:01;98372.00;;;12.30
35582;BMP180;21687;48.900;9.188;2023-07-22T02:11:35;98383.00;;;12.50
35582;BMP180;21687;48.900;9.188;2023-07-22T02:14:01;98378.00;;;12.40
35582;BMP180;21687;48.900;9.188;2023-07-22T02:16:27;98377.00;;;12.40
35582;BMP180;21687;48.900;9.188;2023-07-22T02:18:54;98379.00;;;12.30
35582;BMP180;21687;48.900;9.188;2023-07-22T02:21:20;98380.00;;;12.20
35582;BMP180;21687;48.900;9.188;2023-07-22T02:23:46;98380.00;;;12.10
35582;BMP180;21687;48.900;9.188;2023-07-22T02:26:12;98380.00;;;12.10
35582;BMP180;21687;48.900;9.188;2023-07-22T02:28:39;98378.00;;;12.00
35582;BMP180;21687;48.900;9.188;2023-07-22T02:31:05;98384.00;;;12.00
35582;BMP180;21687;48.900;9.188;2023-07-22T02:33:33;98394.00;;;12.00
35582;BMP180;21687;48.900;9.188;2023-07-22T02:35:59;98394.00;;;11.90
35582;BMP180;21687;48.900;9.188;2023-07-22T02:38:26;98401.00;;;11.80
35582;BMP180;21687;48.900;9.188;2023-07-22T02:40:52;98397.00;;;11.80
35582;BMP180;21687;48.900;9.188;2023-07-22T02:43:18;98400.00;;;11.80
35582;BMP180;21687;48.900;9.188;2023-07-22T02:45:45;98397.00;;;11.80
35582;BMP180;21687;48.900;9.188;2023-07-22T02:48:11;98393.00;;;11.90
35582;BMP180;21687;48.900;9.188;2023-07-22T02:50:37;98392.00;;;11.80
35582;BMP180;21687;48.900;9.188;2023-07-22T02:53:03;98393.00;;;11.90
35582;BMP180;21687;48.900;9.188;2023-07-22T02:55:30;98388.00;;;11.90
35582;BMP180;21687;48.900;9.188;2023-07-22T02:57:56;98379.00;;;12.00
35582;BMP180;21687;48.900;9.188;2023-07-22T03:00:22;98379.00;;;12.10
35582;BMP180;21687;48.900;9.188;2023-07-22T03:02:53;98369.00;;;12.10
35582;BMP180;21687;48.900;9.188;2023-07-22T03:05:21;98381.00;;;12.00
35582;BMP180;21687;48.900;9.188;2023-07-22T03:07:48;98386.00;;;12.10
35582;BMP180;21687;48.900;9.188;2023-07-22T03:10:15;98377.00;;;12.10
35582;BMP180;21687;48.900;9.188;2023-07-22T03:12:42;98379.00;;;12.10
35582;BMP180;21687;48.900;9.188;2023-07-22T03:15:08;98379.00;;;12.20
35582;BMP180;21687;48.900;9.188;2023-07-22T03:17:36;98374.00;;;12.10
35582;BMP180;21687;48.900;9.188;2023-07-22T03:20:03;98379.00;;;12.10
35582;BMP180;21687;48.900;9.188;2023-07-22T03:22:48;98373.00;;;12.20
35582;BMP180;21687;48.900;9.188;2023-07-22T03:25:16;98372.00;;;12.20
35582;BMP180;21687;48.900;9.188;2023-07-22T03:27:46;98372.00;;;12.00
35582;BMP180;21687;48.900;9.188;2023-07-22T03:30:17;98378.00;;;11.90
35582;BMP180;21687;48.900;9.188;2023-07-22T03:32:45;98378.00;;;11.90
35582;BMP180;21687;48.900;9.188;2023-07-22T03:35:13;98376.00;;;11.80
35582;BMP180;21687;48.900;9.188;2023-07-22T03:37:41;98372.00;;;11.70
35582;BMP180;21687;48.900;9.188;2023-07-22T03:40:07;98374.00;;;11.60
35582;BMP180;21687;48.900;9.188;2023-07-22T03:42:40;98376.00;;;11.50
35582;BMP180;21687;48.900;9.188;2023-07-22T03:45:08;98374.00;;;11.70
35582;BMP180;21687;48.900;9.188;2023-07-22T03:47:36;98379.00;;;11.70
35582;BMP180;21687;48.900;9.188;2023-07-22T03:50:02;98364.00;;;11.70
35582;BMP180;21687;48.900;9.188;2023-07-22T03:52:29;98376.00;;;11.80
35582;BMP180;21687;48.900;9.188;2023-07-22T03:54:55;98373.00;;;11.90
35582;BMP180;21687;48.900;9.188;2023-07-22T03:57:28;98372.00;;;12.00
35582;BMP180;21687;48.900;9.188;2023-07-22T03:59:55;98369.00;;;12.00
35582;BMP180;21687;48.900;9.188;2023-07-22T04:02:22;98382.00;;;12.10
35582;BMP180;21687;48.900;9.188;2023-07-22T04:04:49;98383.00;;;12.10
35582;BMP180;21687;48.900;9.188;2023-07-22T04:07:16;98377.00;;;12.30
35582;BMP180;21687;48.900;9.188;2023-07-22T04:09:42;98374.00;;;12.40
35582;BMP180;21687;48.900;9.188;2023-07-22T04:12:09;98386.00;;;12.50
35582;BMP180;21687;48.900;9.188;2023-07-22T04:14:35;98389.00;;;12.60
35582;BMP180;21687;48.900;9.188;2023-07-22T04:17:02;98388.00;;;12.70
35582;BMP180;21687;48.900;9.188;2023-07-22T04:19:30;98390.00;;;12.80
35582;BMP180;21687;48.900;9.188;2023-07-22T04:21:57;98389.00;;;13.00
35582;BMP180;21687;48.900;9.188;2023-07-22T04:24:23;98390.00;;;13.10
35582;BMP180;21687;48.900;9.188;2023-07-22T04:26:51;98382.00;;;13.20
35582;BMP180;21687;48.900;9.188;2023-07-22T04:29:17;98385.00;;;13.40
35582;BMP180;21687;48.900;9.188;2023-07-22T04:31:44;98385.00;;;13.50
35582;BMP180;21687;48.900;9.188;2023-07-22T04:34:10;98385.00;;;13.70
35582;BMP180;21687;48.900;9.188;2023-07-22T04:36:38;98387.00;;;13.90
35582;BMP180;21687;48.900;9.188;2023-07-22T04:39:05;98386.00;;;14.10
35582;BMP180;21687;48.900;9.188;2023-07-22T04:41:31;98382.00;;;14.40
35582;BMP180;21687;48.900;9.188;2023-07-22T04:43:58;98375.00;;;14.50
35582;BMP180;21687;48.900;9.188;2023-07-22T04:46:28;98384.00;;;14.70
35582;BMP180;21687;48.900;9.188;2023-07-22T04:48:55;98377.00;;;14.80
35582;BMP180;21687;48.900;9.188;2023-07-22T04:51:22;98384.00;;;14.90
35582;BMP180;21687;48.900;9.188;2023-07-22T04:53:48;98383.00;;;15.30
35582;BMP180;21687;48.900;9.188;2023-07-22T04:56:14;98381.00;;;15.60
35582;BMP180;21687;48.900;9.188;2023-07-22T04:58:40;98383.00;;;15.80
35582;BMP180;21687;48.900;9.188;2023-07-22T05:01:07;98378.00;;;16.10
35582;BMP180;21687;48.900;9.188;2023-07-22T05:03:34;98385.00;;;16.30
35582;BMP180;21687;48.900;9.188;2023-07-22T05:06:01;98393.00;;;16.50
35582;BMP180;21687;48.900;9.188;2023-07-22T05:08:28;98395.00;;;16.70
35582;BMP180;21687;48.900;9.188;2023-07-22T05:10:54;98390.00;;;17.10
35582;BMP180;21687;48.900;9.188;2023-07-22T05:13:20;98400.00;;;17.40
35582;BMP180;21687;48.900;9.188;2023-07-22T05:15:47;98401.00;;;17.70
35582;BMP180;21687;48.900;9.188;2023-07-22T05:18:13;98392.00;;;17.90
35582;BMP180;21687;48.900;9.188;2023-07-22T05:20:39;98400.00;;;18.20
35582;BMP180;21687;48.900;9.188;2023-07-22T05:23:06;98392.00;;;18.30
35582;BMP180;21687;48.900;9.188;2023-07-22T05:25:32;98400.00;;;18.30
35582;BMP180;21687;48.900;9.188;2023-07-22T05:27:58;98402.00;;;18.40
35582;BMP180;21687;48.900;9.188;2023-07-22T05:30:24;98404.00;;;18.50
35582;BMP180;21687;48.900;9.188;2023-07-22T05:32:54;98408.00;;;18.50
35582;BMP180;21687;48.900;9.188;2023-07-22T05:35:20;98414.00;;;19.00
35582;BMP180;21687;48.900;9.188;2023-07-22T05:37:47;98404.00;;;19.10
35582;BMP180;21687;48.900;9.188;2023-07-22T05:40:14;98407.00;;;19.10
35582;BMP180;21687;48.900;9.188;2023-07-22T05:42:40;98419.00;;;19.00
35582;BMP180;21687;48.900;9.188;2023-07-22T05:45:07;98414.00;;;18.60
35582;BMP180;21687;48.900;9.188;2023-07-22T05:47:34;98423.00;;;18.00
35582;BMP180;21687;48.900;9.188;2023-07-22T05:50:00;98427.00;;;17.80
35582;BMP180;21687;48.900;9.188;2023-07-22T05:52:26;98430.00;;;17.80
35582;BMP180;21687;48.900;9.188;2023-07-22T05:54:53;98433.00;;;17.50
35582;BMP180;21687;48.900;9.188;2023-07-22T05:57:19;98430.00;;;17.40
35582;BMP180;21687;48.900;9.188;2023-07-22T05:59:45;98435.00;;;17.50
35582;BMP180;21687;48.900;9.188;2023-07-22T06:02:16;98428.00;;;17.90
35582;BMP180;21687;48.900;9.188;2023-07-22T06:04:43;98439.00;;;18.70
35582;BMP180;21687;48.900;9.188;2023-07-22T06:07:09;98433.00;;;19.10
35582;BMP180;21687;48.900;9.188;2023-07-22T06:09:36;98437.00;;;19.80
35582;BMP180;21687;48.900;9.188;2023-07-22T06:12:02;98431.00;;;20.30
35582;BMP180;21687;48.900;9.188;2023-07-22T06:14:29;98438.00;;;20.60
35582;BMP180;21687;48.900;9.188;2023-07-22T06:16:55;98437.00;;;21.00
35582;BMP180;21687;48.900;9.188;2023-07-22T06:19:23;98440.00;;;21.50
35582;BMP180;21687;48.900;9.188;2023-07-22T06:21:52;98433.00;;;21.10
35582;BMP180;21687;48.900;9.188;2023-07-22T06:24:18;98448.00;;;21.20
35582;BMP180;21687;48.900;9.188;2023-07-22T06:26:44;98447.00;;;21.70
35582;BMP180;21687;48.900;9.188;2023-07-22T06:29:10;98448.00;;;22.10
35582;BMP180;21687;48.900;9.188;2023-07-22T06:31:37;98453.00;;;22.40
35582;BMP180;21687;48.900;9.188;2023-07-22T06:34:03;98456.00;;;22.20
35582;BMP180;21687;48.900;9.188;2023-07-22T06:36:29;98457.00;;;22.40
35582;BMP180;21687;48.900;9.188;2023-07-22T06:38:56;98462.00;;;22.10
35582;BMP180;21687;48.900;9.188;2023-07-22T06:41:23;98463.00;;;22.30
35582;BMP180;21687;48.900;9.188;2023-07-22T06:43:50;98458.00;;;22.20
35582;BMP180;21687;48.900;9.188;2023-07-22T06:46:17;98460.00;;;22.60
35582;BMP180;21687;48.900;9.188;2023-07-22T06:48:43;98467.00;;;22.30
35582;BMP180;21687;48.900;9.188;2023-07-22T06:51:09;98462.00;;;22.50
35582;BMP180;21687;48.900;9.188;2023-07-22T06:53:35;98465.00;;;23.20
35582;BMP180;21687;48.900;9.188;2023-07-22T06:56:02;98464.00;;;23.60
35582;BMP180;21687;48.900;9.188;2023-07-22T06:58:29;98460.00;;;23.70
35582;BMP180;21687;48.900;9.188;2023-07-22T07:00:55;98465.00;;;23.80
35582;BMP180;21687;48.900;9.188;2023-07-22T07:03:22;98463.00;;;23.60
35582;BMP180;21687;48.900;9.188;2023-07-22T07:05:55;98462.00;;;23.70
35582;BMP180;21687;48.900;9.188;2023-07-22T07:08:23;98467.00;;;24.10
35582;BMP180;21687;48.900;9.188;2023-07-22T07:10:50;98458.00;;;23.90
35582;BMP180;21687;48.900;9.188;2023-07-22T07:13:17;98458.00;;;24.20
35582;BMP180;21687;48.900;9.188;2023-07-22T07:15:47;98473.00;;;24.10
35582;BMP180;21687;48.900;9.188;2023-07-22T07:18:16;98469.00;;;24.50
35582;BMP180;21687;48.900;9.188;2023-07-22T07:20:44;98470.00;;;24.40
35582;BMP180;21687;48.900;9.188;2023-07-22T07:23:10;98472.00;;;24.30
35582;BMP180;21687;48.900;9.188;2023-07-22T07:25:37;98477.00;;;24.70
35582;BMP180;21687;48.900;9.188;2023-07-22T07:28:04;98474.00;;;24.30
35582;BMP180;21687;48.900;9.188;2023-07-22T07:30:30;98465.00;;;24.00
35582;BMP180;21687;48.900;9.188;2023-07-22T07:32:57;98472.00;;;24.30
35582;BMP180;21687;48.900;9.188;2023-07-22T07:35:23;98475.00;;;24.20
35582;BMP180;21687;48.900;9.188;2023-07-22T07:37:53;98475.00;;;24.30
35582;BMP180;21687;48.900;9.188;2023-07-22T07:40:19;98477.00;;;24.00
35582;BMP180;21687;48.900;9.188;2023-07-22T07:42:46;98473.00;;;24.00
35582;BMP180;21687;48.900;9.188;2023-07-22T07:45:12;98477.00;;;24.10
35582;BMP180;21687;48.900;9.188;2023-07-22T07:47:39;98477.00;;;25.00
35582;BMP180;21687;48.900;9.188;2023-07-22T07:50:07;98474.00;;;25.30
35582;BMP180;21687;48.900;9.188;2023-07-22T07:52:33;98472.00;;;25.00
35582;BMP180;21687;48.900;9.188;2023-07-22T07:55:00;98468.00;;;25.10
35582;BMP180;21687;48.900;9.188;2023-07-22T07:57:26;98462.00;;;25.20
35582;BMP180;21687;48.900;9.188;2023-07-22T07:59:52;98457.00;;;25.20
35582;BMP180;21687;48.900;9.188;2023-07-22T08:02:19;98469.00;;;25.30
35582;BMP180;21687;48.900;9.188;2023-07-22T08:04:46;98476.00;;;25.30
35582;BMP180;21687;48.900;9.188;2023-07-22T08:07:16;98477.00;;;25.00
35582;BMP180;21687;48.900;9.188;2023-07-22T08:09:42;98483.00;;;24.90
35582;BMP180;21687;48.900;9.188;2023-07-22T08:12:09;98477.00;;;24.80
35582;BMP180;21687;48.900;9.188;2023-07-22T08:14:35;98471.00;;;25.20
35582;BMP180;21687;48.900;9.188;2023-07-22T08:17:02;98476.00;;;25.20
35582;BMP180;21687;48.900;9.188;2023-07-22T08:19:28;98478.00;;;25.40
35582;BMP180;21687;48.900;9.188;2023-07-22T08:21:54;98476.00;;;25.30
35582;BMP180;21687;48.900;9.188;2023-07-22T08:24:21;98473.00;;;25.50
35582;BMP180;21687;48.900;9.188;2023-07-22T08:26:47;98475.00;;;25.80
35582;BMP180;21687;48.900;9.188;2023-07-22T08:29:14;98474.00;;;25.80
35582;BMP180;21687;48.900;9.188;2023-07-22T08:31:40;98466.00;;;25.60
35582;BMP180;21687;48.900;9.188;2023-07-22T08:34:07;98473.00;;;25.50
35582;BMP180;21687;48.900;9.188;2023-07-22T08:36:33;98470.00;;;25.50
35582;BMP180;21687;48.900;9.188;2023-07-22T08:38:59;98471.00;;;26.00
35582;BMP180;21687;48.900;9.188;2023-07-22T08:41:26;98449.00;;;26.10
35582;BMP180;21687;48.900;9.188;2023-07-22T08:43:54;98464.00;;;26.20
35582;BMP180;21687;48.900;9.188;2023-07-22T08:46:29;98465.00;;;26.30
35582;BMP180;21687;48.900;9.188;2023-07-22T08:49:00;98469.00;;;25.70
35582;BMP180;21687;48.900;9.188;2023-07-22T08:51:27;98462.00;;;25.90
35582;BMP180;21687;48.900;9.188;2023-07-22T08:53:57;98469.00;;;26.00
35582;BMP180;21687;48.900;9.188;2023-07-22T08:56:24;98458.00;;;26.40
35582;BMP180;21687;48.900;9.188;2023-07-22T08:58:55;98469.00;;;26.50
35582;BMP180;21687;48.900;9.188;2023-07-22T09:01:22;98457.00;;;26.30
35582;BMP180;21687;48.900;9.188;2023-07-22T09:03:49;98455.00;;;25.70
35582;BMP180;21687;48.900;9.188;2023-07-22T09:06:19;98460.00;;;25.70
35582;BMP180;21687;48.900;9.188;2023-07-22T09:08:46;98467.00;;;24.90
35582;BMP180;21687;48.900;9.188;2023-07-22T09:11:13;98465.00;;;24.80
35582;BMP180;21687;48.900;9.188;2023-07-22T09:13:41;98462.00;;;24.50
35582;BMP180;21687;48.900;9.188;2023-07-22T09:16:11;98453.00;;;24.20
35582;BMP180;21687;48.900;9.188;2023-07-22T09:18:37;98468.00;;;23.70
35582;BMP180;21687;48.900;9.188;2023-07-22T09:21:03;98464.00;;;23.70
35582;BMP180;21687;48.900;9.188;2023-07-22T09:23:37;98465.00;;;23.70
35582;BMP180;21687;48.900;9.188;2023-07-22T09:26:14;98459.00;;;23.90
35582;BMP180;21687;48.900;9.188;2023-07-22T09:28:55;98455.00;;;24.10
35582;BMP180;21687;48.900;9.188;2023-07-22T09:31:23;98451.00;;;24.40
35582;BMP180;21687;48.900;9.188;2023-07-22T09:33:50;98458.00;;;24.20
35582;BMP180;21687;48.900;9.188;2023-07-22T09:36:17;98449.00;;;24.00
35582;BMP180;21687;48.900;9.188;2023-07-22T09:38:43;98454.00;;;23.80
35582;BMP180;21687;48.900;9.188;2023-07-22T09:41:09;98467.00;;;24.00
35582;BMP180;21687;48.900;9.188;2023-07-22T09:43:39;98466.00;;;23.60
35582;BMP180;21687;48.900;9.188;2023-07-22T09:46:09;98457.00;;;23.30
35582;BMP180;21687;48.900;9.188;2023-07-22T09:48:43;98459.00;;;23.10
35582;BMP180;21687;48.900;9.188;2023-07-22T09:51:17;98449.00;;;22.90
35582;BMP180;21687;48.900;9.188;2023-07-22T09:53:48;98445.00;;;23.10
35582;BMP180;21687;48.900;9.188;2023-07-22T09:56:24;98450.00;;;23.10
35582;BMP180;21687;48.900;9.188;2023-07-22T09:58:52;98453.00;;;23.20
35582;BMP180;21687;48.900;9.188;2023-07-22T10:01:25;98444.00;;;23.60
35582;BMP180;21687;48.900;9.188;2023-07-22T10:03:55;98446.00;;;23.20
35582;BMP180;21687;48.900;9.188;2023-07-22T10:06:32;98430.00;;;23.90
35582;BMP180;21687;48.900;9.188;2023-07-22T10:09:02;98441.00;;;24.80
35582;BMP180;21687;48.900;9.188;2023-07-22T10:11:31;98442.00;;;25.00
35582;BMP180;21687;48.900;9.188;2023-07-22T10:13:59;98440.00;;;25.50
35582;BMP180;21687;48.900;9.188;2023-07-22T10:16:26;98431.00;;;25.40
35582;BMP180;21687;48.900;9.188;2023-07-22T10:18:54;98440.00;;;25.70
35582;BMP180;21687;48.900;9.188;2023-07-22T10:21:22;98427.00;;;25.70
35582;BMP180;21687;48.900;9.188;2023-07-22T10:23:49;98442.00;;;25.60
35582;BMP180;21687;48.900;9.188;2023-07-22T10:26:20;98437.00;;;26.10
35582;BMP180;21687;48.900;9.188;2023-07-22T10:28:47;98425.00;;;26.20
35582;BMP180;21687;48.900;9.188;2023-07-22T10:31:14;98427.00;;;26.90
35582;BMP180;21687;48.900;9.188;2023-07-22T10:33:46;98427.00;;;27.30
35582;BMP180;21687;48.900;9.188;2023-07-22T10:36:17;98418.00;;;27.00
35582;BMP180;21687;48.900;9.188;2023-07-22T10:38:44;98425.00;;;27.10
35582;BMP180;21687;48.900;9.188;2023-07-22T10:41:20;98417.00;;;27.10
35582;BMP180;21687;48.900;9.188;2023-07-22T10:43:55;98421.00;;;26.90
35582;BMP180;21687;48.900;9.188;2023-07-22T10:46:35;98424.00;;;26.00
35582;BMP180;21687;48.900;9.188;2023-07-22T10:49:11;98420.00;;;25.50
35582;BMP180;21687;48.900;9.188;2023-07-22T10:51:38;98418.00;;;25.50
35582;BMP180;21687;48.900;9.188;2023-07-22T10:54:14;98420.00;;;25.50
35582;BMP180;21687;48.900;9.188;2023-07-22T10:56:44;98413.00;;;25.90
35582;BMP180;21687;48.900;9.188;2023-07-22T10:59:11;98407.00;;;26.30
35582;BMP180;21687;48.900;9.188;2023-07-22T11:01:39;98407.00;;;26.80
35582;BMP180;21687;48.900;9.188;2023-07-22T11:04:22;98401.00;;;27.20
35582;BMP180;21687;48.900;9.188;2023-07-22T11:11:55;98404.00;;;28.40
35582;BMP180;21687;48.900;9.188;2023-07-22T11:14:29;98392.00;;;28.70
35582;BMP180;21687;48.900;9.188;2023-07-22T11:17:01;98401.00;;;28.30
35582;BMP180;21687;48.900;9.188;2023-07-22T11:19:27;98397.00;;;28.30
35582;BMP180;21687;48.900;9.188;2023-07-22T11:21:55;98393.00;;;28.60
35582;BMP180;21687;48.900;9.188;2023-07-22T11:24:23;98389.00;;;29.00
35582;BMP180;21687;48.900;9.188;2023-07-22T11:26:51;98384.00;;;28.90
35582;BMP180;21687;48.900;9.188;2023-07-22T11:29:17;98379.00;;;27.50
35582;BMP180;21687;48.900;9.188;2023-07-22T11:31:49;98383.00;;;27.10
35582;BMP180;21687;48.900;9.188;2023-07-22T11:34:19;98385.00;;;27.10
35582;BMP180;21687;48.900;9.188;2023-07-22T11:36:47;98386.00;;;26.70
35582;BMP180;21687;48.900;9.188;2023-07-22T11:39:18;98381.00;;;26.30
35582;BMP180;21687;48.900;9.188;2023-07-22T11:41:46;98386.00;;;25.80
35582;BMP180;21687;48.900;9.188;2023-07-22T11:44:22;98378.00;;;25.20
35582;BMP180;21687;48.900;9.188;2023-07-22T11:47:06;98379.00;;;25.10
35582;BMP180;21687;48.900;9.188;2023-07-22T11:49:40;98367.00;;;25.50
35582;BMP180;21687;48.900;9.188;2023-07-22T11:52:12;98364.00;;;25.90
35582;BMP180;21687;48.900;9.188;2023-07-22T11:54:42;98367.00;;;26.40
35582;BMP180;21687;48.900;9.188;2023-07-22T11:57:20;98362.00;;;25.90
35582;BMP180;21687;48.900;9.188;2023-07-22T11:59:51;98358.00;;;26.10
35582;BMP180;21687;48.900;9.188;2023-07-22T12:02:19;98357.00;;;26.30
35582;BMP180;21687;48.900;9.188;2023-07-22T12:05:02;98344.00;;;26.70
35582;BMP180;21687;48.900;9.188;2023-07-22T12:07:30;98339.00;;;27.30
35582;BMP180;21687;48.900;9.188;2023-07-22T12:10:01;98336.00;;;27.30
35582;BMP180;21687;48.900;9.188;2023-07-22T12:12:56;98336.00;;;26.50
35582;BMP180;21687;48.900;9.188;2023-07-22T12:15:26;98335.00;;;26.10
35582;BMP180;21687;48.900;9.188;2023-07-22T12:20:28;98334.00;;;26.80
35582;BMP180;21687;48.900;9.188;2023-07-22T12:22:56;98328.00;;;27.30
35582;BMP180;21687;48.900;9.188;2023-07-22T12:25:22;98319.00;;;27.70
35582;BMP180;21687;48.900;9.188;2023-07-22T12:27:49;98312.00;;;28.30
35582;BMP180;21687;48.900;9.188;2023-07-22T12:30:16;98321.00;;;28.50
35582;BMP180;21687;48.900;9.188;2023-07-22T12:32:43;98330.00;;;27.80
35582;BMP180;21687;48.900;9.188;2023-07-22T12:35:09;98324.00;;;26.70
35582;BMP180;21687;48.900;9.188;2023-07-22T12:37:36;98319.00;;;26.40
35582;BMP180;21687;48.900;9.188;2023-07-22T12:40:03;98324.00;;;26.20
35582;BMP180;21687;48.900;9.188;2023-07-22T12:42:32;98321.00;;;26.50
35582;BMP180;21687;48.900;9.188;2023-07-22T12:44:58;98324.00;;;27.10
35582;BMP180;21687;48.900;9.188;2023-07-22T12:47:24;98317.00;;;27.50
35582;BMP180;21687;48.900;9.188;2023-07-22T12:49:51;98316.00;;;27.20
35582;BMP180;21687;48.900;9.188;2023-07-22T12:52:17;98314.00;;;27.20
35582;BMP180;21687;48.900;9.188;2023-07-22T12:54:43;98318.00;;;27.20
35582;BMP180;21687;48.900;9.188;2023-07-22T12:57:10;98314.00;;;27.00
35582;BMP180;21687;48.900;9.188;2023-07-22T12:59:37;98306.00;;;26.70
35582;BMP180;21687;48.900;9.188;2023-07-22T13:02:03;98314.00;;;26.20
35582;BMP180;21687;48.900;9.188;2023-07-22T13:04:29;98314.00;;;25.80
35582;BMP180;21687;48.900;9.188;2023-07-22T13:06:56;98318.00;;;26.00
35582;BMP180;21687;48.900;9.188;2023-07-22T13:09:22;98320.00;;;26.00
35582;BMP180;21687;48.900;9.188;2023-07-22T13:11:48;98317.00;;;26.10
35582;BMP180;21687;48.900;9.188;2023-07-22T13:14:15;98304.00;;;26.50
35582;BMP180;21687;48.900;9.188;2023-07-22T13:16:42;98306.00;;;27.10
35582;BMP180;21687;48.900;9.188;2023-07-22T13:19:10;98298.00;;;27.10
35582;BMP180;21687;48.900;9.188;2023-07-22T13:21:36;98300.00;;;26.90
35582;BMP180;21687;48.900;9.188;2023-07-22T13:24:02;98293.00;;;27.30
35582;BMP180;21687;48.900;9.188;2023-07-22T13:26:29;98296.00;;;27.70
35582;BMP180;21687;48.900;9.188;2023-07-22T13:28:55;98289.00;;;27.50
35582;BMP180;21687;48.900;9.188;2023-07-22T13:31:21;98296.00;;;26.70
35582;BMP180;21687;48.900;9.188;2023-07-22T13:33:47;98296.00;;;26.60
35582;BMP180;21687;48.900;9.188;2023-07-22T13:36:14;98285.00;;;26.90
35582;BMP180;21687;48.900;9.188;2023-07-22T13:38:40;98280.00;;;27.60
35582;BMP180;21687;48.900;9.188;2023-07-22T13:41:06;98290.00;;;27.50
35582;BMP180;21687;48.900;9.188;2023-07-22T13:43:33;98283.00;;;27.60
35582;BMP180;21687;48.900;9.188;2023-07-22T13:45:59;98284.00;;;27.90
35582;BMP180;21687;48.900;9.188;2023-07-22T13:48:25;98275.00;;;27.40
35582;BMP180;21687;48.900;9.188;2023-07-22T13:50:52;98282.00;;;27.00
35582;BMP180;21687;48.900;9.188;2023-07-22T13:53:18;98274.00;;;26.60
35582;BMP180;21687;48.900;9.188;2023-07-22T13:55:45;98273.00;;;26.50
35582;BMP180;21687;48.900;9.188;2023-07-22T13:58:12;98273.00;;;26.30
35582;BMP180;21687;48.900;9.188;2023-07-22T14:00:38;98282.00;;;26.30
35582;BMP180;21687;48.900;9.188;2023-07-22T14:03:05;98283.00;;;26.00
35582;BMP180;21687;48.900;9.188;2023-07-22T14:05:31;98279.00;;;26.00
35582;BMP180;21687;48.900;9.188;2023-07-22T14:07:58;98279.00;;;25.80
35582;BMP180;21687;48.900;9.188;2023-07-22T14:10:24;98272.00;;;25.80
35582;BMP180;21687;48.900;9.188;2023-07-22T14:12:51;98265.00;;;26.30
35582;BMP180;21687;48.900;9.188;2023-07-22T14:15:17;98261.00;;;26.70
35582;BMP180;21687;48.900;9.188;2023-07-22T14:17:43;98274.00;;;26.30
35582;BMP180;21687;48.900;9.188;2023-07-22T14:20:10;98269.00;;;25.90